sensor_id;sensor_type;location;lat;lon;timestamp;pressure;altitude;pressure_sealevel;temperature;humidity
23321;BME280;33376;51.306;4.752;2024-01-10T00:02:22;103297.91;;;-3.87;100.00
23321;BME280;33376;51.306;4.752;2024-01-10T00:04:47;103309.44;;;-3.99;100.00
23321;BME280;33376;51.306;4.752;2024-01-10T00:07:13;103334.41;;;-4.20;100.00
23321;BME280;33376;51.306;4.752;2024-01-10T00:09:38;103308.47;;;-4.01;100.00
23321;BME280;33376;51.306;4.752;2024-01-10T00:12:03;103274.13;;;-3.97;100.00
23321;BME280;33376;51.306;4.752;2024-01-10T00:14:29;103265.66;;;-3.93;100.00
23321;BME280;33376;51.306;4.752;2024-01-10T00:16:54;103264.63;;;-3.97;100.00
23321;BME280;33376;51.306;4.752;2024-01-10T00:19:19;103268.06;;;-3.98;100.00
23321;BME280;33376;51.306;4.752;2024-01-10T00:21:44;103270.72;;;-3.96;100.00
23321;BME280;33376;51.306;4.752;2024-01-10T00:24:10;103272.47;;;-3.95;100.00
23321;BME280;33376;51.306;4.752;2024-01-10T00:26:35;103217.69;;;-3.84;100.00
23321;BME280;33376;51.306;4.752;2024-01-10T00:29:00;103240.16;;;-4.03;100.00
23321;BME280;33376;51.306;4.752;2024-01-10T00:31:25;103268.59;;;-4.05;100.00
23321;BME280;33376;51.306;4.752;2024-01-10T00:33:51;103267.56;;;-4.08;100.00
23321;BME280;33376;51.306;4.752;2024-01-10T00:36:16;103227.91;;;-4.07;100.00
23321;BME280;33376;51.306;4.752;2024-01-10T00:38:41;103239.84;;;-4.11;100.00
23321;BME280;33376;51.306;4.752;2024-01-10T00:41:06;103254.56;;;-4.10;100.00
23321;BME280;33376;51.306;4.752;2024-01-10T00:43:32;103270.88;;;-4.12;100.00
23321;BME280;33376;51.306;4.752;2024-01-10T00:45:57;103244.00;;;-4.14;100.00
23321;BME280;33376;51.306;4.752;2024-01-10T00:48:22;103268.50;;;-4.27;100.00
23321;BME280;33376;51.306;4.752;2024-01-10T00:50:48;103248.09;;;-4.19;100.00
23321;BME280;33376;51.306;4.752;2024-01-10T00:53:13;103275.72;;;-4.39;100.00
23321;BME280;33376;51.306;4.752;2024-01-10T00:55:38;103290.28;;;-4.41;100.00
23321;BME280;33376;51.306;4.752;2024-01-10T00:58:04;103241.03;;;-4.23;100.00
23321;BME280;33376;51.306;4.752;2024-01-10T01:00:29;103257.28;;;-4.26;100.00
23321;BME280;33376;51.306;4.752;2024-01-10T01:02:54;103266.22;;;-4.38;100.00
23321;BME280;33376;51.306;4.752;2024-01-10T01:05:19;103310.75;;;-4.47;100.00
23321;BME280;33376;51.306;4.752;2024-01-10T01:07:45;103280.22;;;-4.35;100.00
23321;BME280;33376;51.306;4.752;2024-01-10T01:10:10;103262.22;;;-4.32;100.00
23321;BME280;33376;51.306;4.752;2024-01-10T01:12:35;103283.50;;;-4.39;100.00
23321;BME280;33376;51.306;4.752;2024-01-10T01:15:01;103260.84;;;-4.24;100.00
23321;BME280;33376;51.306;4.752;2024-01-10T01:17:26;103263.25;;;-4.28;100.00
23321;BME280;33376;51.306;4.752;2024-01-10T01:19:52;103279.94;;;-4.22;100.00
23321;BME280;33376;51.306;4.752;2024-01-10T01:22:17;103272.56;;;-4.32;100.00
23321;BME280;33376;51.306;4.752;2024-01-10T01:24:42;103254.81;;;-4.24;100.00
23321;BME280;33376;51.306;4.752;2024-01-10T01:27:08;103273.53;;;-4.30;100.00
23321;BME280;33376;51.306;4.752;2024-01-10T01:29:33;103276.13;;;-4.30;100.00
23321;BME280;33376;51.306;4.752;2024-01-10T01:31:59;103254.09;;;-4.20;100.00
23321;BME280;33376;51.306;4.752;2024-01-10T01:34:24;103249.47;;;-4.27;100.00
23321;BME280;33376;51.306;4.752;2024-01-10T01:36:49;103276.53;;;-4.40;100.00
23321;BME280;33376;51.306;4.752;2024-01-10T01:39:16;103262.41;;;-4.27;100.00
23321;BME280;33376;51.306;4.752;2024-01-10T01:41:41;103268.28;;;-4.31;100.00
23321;BME280;33376;51.306;4.752;2024-01-10T01:44:07;103262.41;;;-4.27;100.00
23321;BME280;33376;51.306;4.752;2024-01-10T01:46:32;103258.69;;;-4.34;100.00
23321;BME280;33376;51.306;4.752;2024-01-10T01:48:58;103248.53;;;-4.29;100.00
23321;BME280;33376;51.306;4.752;2024-01-10T01:51:23;103250.03;;;-4.34;100.00
23321;BME280;33376;51.306;4.752;2024-01-10T01:53:48;103258.69;;;-4.34;100.00
23321;BME280;33376;51.306;4.752;2024-01-10T01:56:15;103250.84;;;-4.35;100.00
23321;BME280;33376;51.306;4.752;2024-01-10T01:58:41;103261.94;;;-4.38;100.00
23321;BME280;33376;51.306;4.752;2024-01-10T02:01:07;103278.91;;;-4.44;100.00
23321;BME280;33376;51.306;4.752;2024-01-10T02:03:33;103298.25;;;-4.56;100.00
23321;BME280;33376;51.306;4.752;2024-01-10T02:05:59;103332.72;;;-4.57;100.00
23321;BME280;33376;51.306;4.752;2024-01-10T02:08:24;103270.56;;;-4.39;100.00
23321;BME280;33376;51.306;4.752;2024-01-10T02:10:50;103256.56;;;-4.42;100.00
23321;BME280;33376;51.306;4.752;2024-01-10T02:13:15;103255.75;;;-4.41;100.00
23321;BME280;33376;51.306;4.752;2024-01-10T02:15:41;103226.53;;;-4.39;100.00
23321;BME280;33376;51.306;4.752;2024-01-10T02:18:08;103240.97;;;-4.44;100.00
23321;BME280;33376;51.306;4.752;2024-01-10T02:20:35;103232.94;;;-4.50;100.00
23321;BME280;33376;51.306;4.752;2024-01-10T02:23:00;103245.97;;;-4.48;100.00
23321;BME280;33376;51.306;4.752;2024-01-10T02:25:25;103247.66;;;-4.49;100.00
23321;BME280;33376;51.306;4.752;2024-01-10T02:27:51;103282.66;;;-4.57;100.00
23321;BME280;33376;51.306;4.752;2024-01-10T02:30:16;103257.94;;;-4.51;100.00
23321;BME280;33376;51.306;4.752;2024-01-10T02:32:41;103239.75;;;-4.52;100.00
23321;BME280;33376;51.306;4.752;2024-01-10T02:35:07;103236.19;;;-4.54;100.00
23321;BME280;33376;51.306;4.752;2024-01-10T02:37:33;103232.31;;;-4.44;100.00
23321;BME280;33376;51.306;4.752;2024-01-10T02:39:58;103228.09;;;-4.42;100.00
23321;BME280;33376;51.306;4.752;2024-01-10T02:42:23;103239.75;;;-4.52;100.00
23321;BME280;33376;51.306;4.752;2024-01-10T02:44:49;103271.53;;;-4.55;100.00
23321;BME280;33376;51.306;4.752;2024-01-10T02:47:14;103265.38;;;-4.58;100.00
23321;BME280;33376;51.306;4.752;2024-01-10T02:49:39;103244.59;;;-4.40;100.00
23321;BME280;33376;51.306;4.752;2024-01-10T02:52:05;103206.09;;;-4.33;100.00
23321;BME280;33376;51.306;4.752;2024-01-10T02:54:30;103198.06;;;-4.39;100.00
23321;BME280;33376;51.306;4.752;2024-01-10T02:56:56;103228.69;;;-4.48;100.00
23321;BME280;33376;51.306;4.752;2024-01-10T02:59:21;103196.47;;;-4.35;100.00
23321;BME280;33376;51.306;4.752;2024-01-10T03:01:46;103199.75;;;-4.39;100.00
23321;BME280;33376;51.306;4.752;2024-01-10T03:04:11;103245.88;;;-4.50;100.00
23321;BME280;33376;51.306;4.752;2024-01-10T03:06:37;103210.94;;;-4.40;100.00
23321;BME280;33376;51.306;4.752;2024-01-10T03:09:02;103197.63;;;-4.48;100.00
23321;BME280;33376;51.306;4.752;2024-01-10T03:11:28;103201.25;;;-4.44;100.00
23321;BME280;33376;51.306;4.752;2024-01-10T03:14:03;103222.44;;;-4.53;100.00
23321;BME280;33376;51.306;4.752;2024-01-10T03:16:29;103224.41;;;-4.47;100.00
23321;BME280;33376;51.306;4.752;2024-01-10T03:18:54;103205.69;;;-4.42;100.00
23321;BME280;33376;51.306;4.752;2024-01-10T03:21:19;103184.88;;;-4.43;100.00
23321;BME280;33376;51.306;4.752;2024-01-10T03:23:49;103197.56;;;-4.50;100.00
23321;BME280;33376;51.306;4.752;2024-01-10T03:26:15;103175.16;;;-4.49;100.00
23321;BME280;33376;51.306;4.752;2024-01-10T03:28:40;103200.66;;;-4.58;100.00
23321;BME280;33376;51.306;4.752;2024-01-10T03:31:05;103211.59;;;-4.64;100.00
23321;BME280;33376;51.306;4.752;2024-01-10T03:33:30;103215.97;;;-4.63;100.00
23321;BME280;33376;51.306;4.752;2024-01-10T03:35:56;103218.47;;;-4.64;100.00
23321;BME280;33376;51.306;4.752;2024-01-10T03:38:21;103219.38;;;-4.64;100.00
23321;BME280;33376;51.306;4.752;2024-01-10T03:40:46;103225.25;;;-4.68;100.00
23321;BME280;33376;51.306;4.752;2024-01-10T03:43:11;103261.66;;;-4.82;100.00
23321;BME280;33376;51.306;4.752;2024-01-10T03:45:37;103272.06;;;-4.81;100.00
23321;BME280;33376;51.306;4.752;2024-01-10T03:48:02;103305.31;;;-4.88;100.00
23321;BME280;33376;51.306;4.752;2024-01-10T03:50:28;103335.28;;;-4.93;100.00
23321;BME280;33376;51.306;4.752;2024-01-10T03:52:53;103283.53;;;-4.76;100.00
23321;BME280;33376;51.306;4.752;2024-01-10T03:55:18;103245.25;;;-4.64;100.00
23321;BME280;33376;51.306;4.752;2024-01-10T03:57:43;103244.03;;;-4.72;100.00
23321;BME280;33376;51.306;4.752;2024-01-10T04:00:09;103222.34;;;-4.74;100.00
23321;BME280;33376;51.306;4.752;2024-01-10T04:02:37;103242.19;;;-4.74;100.00
23321;BME280;33376;51.306;4.752;2024-01-10T04:05:06;103250.69;;;-4.77;100.00
23321;BME280;33376;51.306;4.752;2024-01-10T04:07:31;103247.72;;;-4.67;100.00
23321;BME280;33376;51.306;4.752;2024-01-10T04:09:56;103255.28;;;-4.71;100.00
23321;BME280;33376;51.306;4.752;2024-01-10T04:12:22;103268.00;;;-4.76;100.00
23321;BME280;33376;51.306;4.752;2024-01-10T04:14:47;103268.72;;;-4.78;100.00
23321;BME280;33376;51.306;4.752;2024-01-10T04:17:12;103275.38;;;-4.83;100.00
23321;BME280;33376;51.306;4.752;2024-01-10T04:19:37;103268.59;;;-4.81;100.00
23321;BME280;33376;51.306;4.752;2024-01-10T04:22:03;103270.34;;;-4.80;100.00
23321;BME280;33376;51.306;4.752;2024-01-10T04:24:28;103266.13;;;-4.78;100.00
23321;BME280;33376;51.306;4.752;2024-01-10T04:26:53;103266.53;;;-4.88;100.00
23321;BME280;33376;51.306;4.752;2024-01-10T04:29:19;103270.53;;;-4.77;100.00
23321;BME280;33376;51.306;4.752;2024-01-10T04:31:44;103279.47;;;-4.88;100.00
23321;BME280;33376;51.306;4.752;2024-01-10T04:34:10;103273.28;;;-4.92;100.00
23321;BME280;33376;51.306;4.752;2024-01-10T04:36:36;103273.34;;;-4.90;100.00
23321;BME280;33376;51.306;4.752;2024-01-10T04:39:02;103269.88;;;-4.91;100.00
23321;BME280;33376;51.306;4.752;2024-01-10T04:41:28;103275.19;;;-4.88;100.00
23321;BME280;33376;51.306;4.752;2024-01-10T04:43:53;103282.88;;;-4.89;100.00
23321;BME280;33376;51.306;4.752;2024-01-10T04:46:22;103274.16;;;-4.91;100.00
23321;BME280;33376;51.306;4.752;2024-01-10T04:48:48;103281.13;;;-4.90;100.00
23321;BME280;33376;51.306;4.752;2024-01-10T04:51:13;103271.56;;;-4.91;100.00
23321;BME280;33376;51.306;4.752;2024-01-10T04:53:39;103283.56;;;-4.93;100.00
23321;BME280;33376;51.306;4.752;2024-01-10T04:56:05;103301.50;;;-4.96;100.00
23321;BME280;33376;51.306;4.752;2024-01-10T04:58:30;103324.69;;;-4.98;100.00
23321;BME280;33376;51.306;4.752;2024-01-10T05:00:57;103306.09;;;-4.91;100.00
23321;BME280;33376;51.306;4.752;2024-01-10T05:03:23;103293.22;;;-4.89;100.00
23321;BME280;33376;51.306;4.752;2024-01-10T05:05:48;103308.81;;;-4.88;100.00
23321;BME280;33376;51.306;4.752;2024-01-10T05:08:13;103323.22;;;-4.93;100.00
23321;BME280;33376;51.306;4.752;2024-01-10T05:10:39;103281.25;;;-4.87;100.00
23321;BME280;33376;51.306;4.752;2024-01-10T05:13:04;103262.66;;;-4.79;100.00
23321;BME280;33376;51.306;4.752;2024-01-10T05:15:29;103285.31;;;-4.92;100.00
23321;BME280;33376;51.306;4.752;2024-01-10T05:17:54;103269.28;;;-4.85;100.00
23321;BME280;33376;51.306;4.752;2024-01-10T05:20:21;103263.16;;;-4.87;100.00
23321;BME280;33376;51.306;4.752;2024-01-10T05:22:46;103275.81;;;-4.93;100.00
23321;BME280;33376;51.306;4.752;2024-01-10T05:25:11;103303.72;;;-5.04;100.00
23321;BME280;33376;51.306;4.752;2024-01-10T05:27:38;103317.28;;;-5.09;100.00
23321;BME280;33376;51.306;4.752;2024-01-10T05:30:03;103320.00;;;-5.06;100.00
23321;BME280;33376;51.306;4.752;2024-01-10T05:32:29;103324.88;;;-5.12;100.00
23321;BME280;33376;51.306;4.752;2024-01-10T05:34:54;103307.44;;;-5.16;100.00
23321;BME280;33376;51.306;4.752;2024-01-10T05:37:20;103316.94;;;-5.15;100.00
23321;BME280;33376;51.306;4.752;2024-01-10T05:39:45;103314.16;;;-5.20;100.00
23321;BME280;33376;51.306;4.752;2024-01-10T05:42:10;103312.59;;;-5.16;100.00
23321;BME280;33376;51.306;4.752;2024-01-10T05:44:36;103326.94;;;-5.23;100.00
23321;BME280;33376;51.306;4.752;2024-01-10T05:47:01;103321.19;;;-5.17;100.00
23321;BME280;33376;51.306;4.752;2024-01-10T05:49:27;103335.72;;;-5.19;100.00
23321;BME280;33376;51.306;4.752;2024-01-10T05:51:53;103318.06;;;-5.10;100.00
23321;BME280;33376;51.306;4.752;2024-01-10T05:54:18;103296.44;;;-5.12;100.00
23321;BME280;33376;51.306;4.752;2024-01-10T05:56:43;103315.19;;;-5.16;100.00
23321;BME280;33376;51.306;4.752;2024-01-10T05:59:09;103332.31;;;-5.18;100.00
23321;BME280;33376;51.306;4.752;2024-01-10T06:01:36;103324.56;;;-5.18;100.00
23321;BME280;33376;51.306;4.752;2024-01-10T06:04:01;103336.56;;;-5.20;100.00
23321;BME280;33376;51.306;4.752;2024-01-10T06:06:27;103342.72;;;-5.17;100.00
23321;BME280;33376;51.306;4.752;2024-01-10T06:08:52;103340.47;;;-5.28;100.00
23321;BME280;33376;51.306;4.752;2024-01-10T06:11:17;103320.06;;;-5.05;100.00
23321;BME280;33376;51.306;4.752;2024-01-10T06:13:43;103321.25;;;-5.16;100.00
23321;BME280;33376;51.306;4.752;2024-01-10T06:16:08;103326.28;;;-5.19;100.00
23321;BME280;33376;51.306;4.752;2024-01-10T06:18:33;103325.38;;;-5.19;100.00
23321;BME280;33376;51.306;4.752;2024-01-10T06:20:59;103338.66;;;-5.29;100.00
23321;BME280;33376;51.306;4.752;2024-01-10T06:23:24;103347.97;;;-5.33;100.00
23321;BME280;33376;51.306;4.752;2024-01-10T06:25:49;103349.31;;;-5.23;100.00
23321;BME280;33376;51.306;4.752;2024-01-10T06:28:15;103362.84;;;-5.29;100.00
23321;BME280;33376;51.306;4.752;2024-01-10T06:30:40;103363.41;;;-5.34;100.00
23321;BME280;33376;51.306;4.752;2024-01-10T06:33:06;103365.75;;;-5.39;100.00
23321;BME280;33376;51.306;4.752;2024-01-10T06:35:32;103355.91;;;-5.30;100.00
23321;BME280;33376;51.306;4.752;2024-01-10T06:37:57;103344.06;;;-5.25;100.00
23321;BME280;33376;51.306;4.752;2024-01-10T06:40:22;103333.66;;;-5.26;100.00
23321;BME280;33376;51.306;4.752;2024-01-10T06:42:47;103341.47;;;-5.25;100.00
23321;BME280;33376;51.306;4.752;2024-01-10T06:45:13;103324.13;;;-5.27;100.00
23321;BME280;33376;51.306;4.752;2024-01-10T06:47:39;103330.13;;;-5.28;100.00
23321;BME280;33376;51.306;4.752;2024-01-10T06:50:04;103320.06;;;-5.22;100.00
23321;BME280;33376;51.306;4.752;2024-01-10T06:52:30;103352.34;;;-5.32;100.00
23321;BME280;33376;51.306;4.752;2024-01-10T06:54:56;103374.72;;;-5.32;100.00
23321;BME280;33376;51.306;4.752;2024-01-10T06:57:22;103375.97;;;-5.24;100.00
23321;BME280;33376;51.306;4.752;2024-01-10T06:59:47;103354.81;;;-5.17;100.00
23321;BME280;33376;51.306;4.752;2024-01-10T07:02:13;103336.03;;;-5.13;100.00
23321;BME280;33376;51.306;4.752;2024-01-10T07:04:38;103330.91;;;-5.12;100.00
23321;BME280;33376;51.306;4.752;2024-01-10T07:07:03;103315.47;;;-5.10;100.00
23321;BME280;33376;51.306;4.752;2024-01-10T07:09:29;103331.38;;;-5.03;100.00
23321;BME280;33376;51.306;4.752;2024-01-10T07:11:54;103338.31;;;-5.19;100.00
23321;BME280;33376;51.306;4.752;2024-01-10T07:14:19;103323.84;;;-5.16;100.00
23321;BME280;33376;51.306;4.752;2024-01-10T07:16:45;103341.94;;;-5.33;100.00
23321;BME280;33376;51.306;4.752;2024-01-10T07:19:13;103341.31;;;-5.28;100.00
23321;BME280;33376;51.306;4.752;2024-01-10T07:21:39;103336.00;;;-5.31;100.00
23321;BME280;33376;51.306;4.752;2024-01-10T07:24:05;103319.25;;;-5.21;100.00
23321;BME280;33376;51.306;4.752;2024-01-10T07:26:31;103338.03;;;-5.25;100.00
23321;BME280;33376;51.306;4.752;2024-01-10T07:28:56;103314.28;;;-5.34;100.00
23321;BME280;33376;51.306;4.752;2024-01-10T07:31:21;103327.28;;;-5.33;100.00
23321;BME280;33376;51.306;4.752;2024-01-10T07:33:48;103316.38;;;-5.27;100.00
23321;BME280;33376;51.306;4.752;2024-01-10T07:36:13;103338.44;;;-5.34;100.00
23321;BME280;33376;51.306;4.752;2024-01-10T07:38:38;103343.41;;;-5.38;100.00
23321;BME280;33376;51.306;4.752;2024-01-10T07:41:04;103354.44;;;-5.41;100.00
23321;BME280;33376;51.306;4.752;2024-01-10T07:43:29;103373.50;;;-5.39;100.00
23321;BME280;33376;51.306;4.752;2024-01-10T07:45:54;103381.56;;;-5.33;100.00
23321;BME280;33376;51.306;4.752;2024-01-10T07:48:19;103387.72;;;-5.31;100.00
23321;BME280;33376;51.306;4.752;2024-01-10T07:50:45;103403.06;;;-5.34;100.00
23321;BME280;33376;51.306;4.752;2024-01-10T07:53:10;103411.06;;;-5.29;100.00
23321;BME280;33376;51.306;4.752;2024-01-10T07:55:36;103405.81;;;-5.31;100.00
23321;BME280;33376;51.306;4.752;2024-01-10T07:58:01;103413.88;;;-5.25;100.00
23321;BME280;33376;51.306;4.752;2024-01-10T08:00:26;103415.88;;;-5.19;100.00
23321;BME280;33376;51.306;4.752;2024-01-10T08:02:51;103409.09;;;-5.17;100.00
23321;BME280;33376;51.306;4.752;2024-01-10T08:05:17;103404.97;;;-5.14;100.00
23321;BME280;33376;51.306;4.752;2024-01-10T08:07:42;103405.28;;;-5.08;100.00
23321;BME280;33376;51.306;4.752;2024-01-10T08:10:08;103406.22;;;-5.06;100.00
23321;BME280;33376;51.306;4.752;2024-01-10T08:12:37;103385.84;;;-5.00;100.00
23321;BME280;33376;51.306;4.752;2024-01-10T08:15:03;103392.22;;;-4.93;100.00
23321;BME280;33376;51.306;4.752;2024-01-10T08:17:29;103399.28;;;-4.89;100.00
23321;BME280;33376;51.306;4.752;2024-01-10T08:19:54;103401.81;;;-4.91;100.00
23321;BME280;33376;51.306;4.752;2024-01-10T08:22:19;103384.94;;;-4.83;100.00
23321;BME280;33376;51.306;4.752;2024-01-10T08:24:45;103377.34;;;-4.80;100.00
23321;BME280;33376;51.306;4.752;2024-01-10T08:27:11;103359.63;;;-4.71;100.00
23321;BME280;33376;51.306;4.752;2024-01-10T08:29:36;103356.41;;;-4.67;100.00
23321;BME280;33376;51.306;4.752;2024-01-10T08:32:01;103343.66;;;-4.62;100.00
23321;BME280;33376;51.306;4.752;2024-01-10T08:34:29;103338.03;;;-4.54;100.00
23321;BME280;33376;51.306;4.752;2024-01-10T08:36:54;103314.06;;;-4.50;100.00
23321;BME280;33376;51.306;4.752;2024-01-10T08:39:19;103300.00;;;-4.55;100.00
23321;BME280;33376;51.306;4.752;2024-01-10T08:41:46;103302.22;;;-4.44;100.00
23321;BME280;33376;51.306;4.752;2024-01-10T08:44:12;103295.53;;;-4.39;100.00
23321;BME280;33376;51.306;4.752;2024-01-10T08:46:37;103291.34;;;-4.37;100.00
23321;BME280;33376;51.306;4.752;2024-01-10T08:49:02;103277.50;;;-4.38;100.00
23321;BME280;33376;51.306;4.752;2024-01-10T08:51:28;103274.75;;;-4.22;100.00
23321;BME280;33376;51.306;4.752;2024-01-10T08:53:53;103265.78;;;-4.30;100.00
23321;BME280;33376;51.306;4.752;2024-01-10T08:56:18;103267.66;;;-4.26;100.00
23321;BME280;33376;51.306;4.752;2024-01-10T08:58:44;103256.63;;;-4.22;100.00
23321;BME280;33376;51.306;4.752;2024-01-10T09:01:10;103258.59;;;-4.16;100.00
23321;BME280;33376;51.306;4.752;2024-01-10T09:03:35;103256.34;;;-4.09;100.00
23321;BME280;33376;51.306;4.752;2024-01-10T09:06:02;103262.75;;;-4.01;100.00
23321;BME280;33376;51.306;4.752;2024-01-10T09:08:29;103260.28;;;-3.98;100.00
23321;BME280;33376;51.306;4.752;2024-01-10T09:10:54;103243.34;;;-4.10;100.00
23321;BME280;33376;51.306;4.752;2024-01-10T09:13:19;103231.97;;;-3.93;100.00
23321;BME280;33376;51.306;4.752;2024-01-10T09:15:44;103222.03;;;-4.03;100.00
23321;BME280;33376;51.306;4.752;2024-01-10T09:18:10;103223.19;;;-3.97;100.00
23321;BME280;33376;51.306;4.752;2024-01-10T09:20:35;103215.09;;;-3.84;100.00
23321;BME280;33376;51.306;4.752;2024-01-10T09:23:03;103202.16;;;-3.84;100.00
23321;BME280;33376;51.306;4.752;2024-01-10T09:25:29;103206.94;;;-3.72;100.00
23321;BME280;33376;51.306;4.752;2024-01-10T09:27:54;103209.44;;;-3.75;100.00
23321;BME280;33376;51.306;4.752;2024-01-10T09:30:20;103207.75;;;-3.73;100.00
23321;BME280;33376;51.306;4.752;2024-01-10T09:32:45;103180.25;;;-3.70;100.00
23321;BME280;33376;51.306;4.752;2024-01-10T09:35:11;103174.56;;;-3.61;100.00
23321;BME280;33376;51.306;4.752;2024-01-10T09:37:37;103147.75;;;-3.62;100.00
23321;BME280;33376;51.306;4.752;2024-01-10T09:40:05;103162.34;;;-3.64;100.00
23321;BME280;33376;51.306;4.752;2024-01-10T09:42:33;103136.59;;;-3.61;100.00
23321;BME280;33376;51.306;4.752;2024-01-10T09:45:00;103130.78;;;-3.54;100.00
23321;BME280;33376;51.306;4.752;2024-01-10T09:47:25;103165.97;;;-3.38;100.00
23321;BME280;33376;51.306;4.752;2024-01-10T09:49:51;103131.50;;;-3.36;100.00
23321;BME280;33376;51.306;4.752;2024-01-10T09:52:20;103136.19;;;-3.27;100.00
23321;BME280;33376;51.306;4.752;2024-01-10T09:54:48;103138.94;;;-3.23;100.00
23321;BME280;33376;51.306;4.752;2024-01-10T09:57:17;103119.34;;;-3.15;100.00
23321;BME280;33376;51.306;4.752;2024-01-10T09:59:43;103116.66;;;-3.18;100.00
23321;BME280;33376;51.306;4.752;2024-01-10T10:02:12;103130.22;;;-3.01;100.00
23321;BME280;33376;51.306;4.752;2024-01-10T10:04:38;103115.22;;;-3.10;100.00
23321;BME280;33376;51.306;4.752;2024-01-10T10:07:06;103092.31;;;-2.97;100.00
23321;BME280;33376;51.306;4.752;2024-01-10T10:09:31;103071.50;;;-2.99;100.00
23321;BME280;33376;51.306;4.752;2024-01-10T10:11:56;103085.38;;;-2.98;100.00
23321;BME280;33376;51.306;4.752;2024-01-10T10:14:23;103078.59;;;-2.93;100.00
23321;BME280;33376;51.306;4.752;2024-01-10T10:16:51;103078.94;;;-2.84;100.00
23321;BME280;33376;51.306;4.752;2024-01-10T10:19:25;103062.38;;;-2.88;100.00
23321;BME280;33376;51.306;4.752;2024-01-10T10:21:50;103067.16;;;-2.75;100.00
23321;BME280;33376;51.306;4.752;2024-01-10T10:24:16;103045.56;;;-2.74;100.00
23321;BME280;33376;51.306;4.752;2024-01-10T10:26:41;103046.09;;;-2.59;100.00
23321;BME280;33376;51.306;4.752;2024-01-10T10:29:07;103047.69;;;-2.62;100.00
23321;BME280;33376;51.306;4.752;2024-01-10T10:31:32;103031.13;;;-2.66;100.00
23321;BME280;33376;51.306;4.752;2024-01-10T10:33:59;103019.47;;;-2.52;100.00
23321;BME280;33376;51.306;4.752;2024-01-10T10:36:24;103027.25;;;-2.27;100.00
23321;BME280;33376;51.306;4.752;2024-01-10T10:38:49;102986.19;;;-2.38;100.00
23321;BME280;33376;51.306;4.752;2024-01-10T10:41:14;102993.13;;;-2.37;100.00
23321;BME280;33376;51.306;4.752;2024-01-10T10:43:40;102989.78;;;-2.35;100.00
23321;BME280;33376;51.306;4.752;2024-01-10T10:46:07;102985.47;;;-2.33;100.00
23321;BME280;33376;51.306;4.752;2024-01-10T10:48:32;102989.28;;;-2.22;100.00
23321;BME280;33376;51.306;4.752;2024-01-10T10:53:33;102976.63;;;-2.13;100.00
23321;BME280;33376;51.306;4.752;2024-01-10T10:55:59;102963.75;;;-2.08;100.00
23321;BME280;33376;51.306;4.752;2024-01-10T10:58:25;102951.59;;;-2.09;100.00
23321;BME280;33376;51.306;4.752;2024-01-10T11:00:50;102948.13;;;-2.10;100.00
23321;BME280;33376;51.306;4.752;2024-01-10T11:03:16;102955.41;;;-1.98;100.00
23321;BME280;33376;51.306;4.752;2024-01-10T11:05:42;102928.78;;;-1.90;100.00
23321;BME280;33376;51.306;4.752;2024-01-10T11:08:11;102911.41;;;-1.92;100.00
23321;BME280;33376;51.306;4.752;2024-01-10T11:10:38;102895.22;;;-1.82;100.00
23321;BME280;33376;51.306;4.752;2024-01-10T11:18:25;102894.72;;;-1.69;100.00
23321;BME280;33376;51.306;4.752;2024-01-10T11:23:56;102861.91;;;-1.64;100.00
23321;BME280;33376;51.306;4.752;2024-01-10T11:26:23;102867.38;;;-1.55;100.00
23321;BME280;33376;51.306;4.752;2024-01-10T11:28:48;102884.31;;;-1.38;100.00
23321;BME280;33376;51.306;4.752;2024-01-10T11:31:14;102863.53;;;-1.36;100.00
23321;BME280;33376;51.306;4.752;2024-01-10T11:33:40;102835.69;;;-1.40;100.00
23321;BME280;33376;51.306;4.752;2024-01-10T11:36:26;102824.50;;;-1.36;100.00
23321;BME280;33376;51.306;4.752;2024-01-10T11:44:01;102832.69;;;-1.23;100.00
23321;BME280;33376;51.306;4.752;2024-01-10T11:46:32;102762.41;;;-1.23;100.00
23321;BME280;33376;51.306;4.752;2024-01-10T11:48:58;102777.06;;;-1.26;100.00
23321;BME280;33376;51.306;4.752;2024-01-10T11:51:24;102783.41;;;-1.15;100.00
23321;BME280;33376;51.306;4.752;2024-01-10T11:53:49;102781.03;;;-1.06;100.00
23321;BME280;33376;51.306;4.752;2024-01-10T11:56:15;102769.81;;;-1.04;100.00
23321;BME280;33376;51.306;4.752;2024-01-10T11:58:54;102742.94;;;-1.03;100.00
23321;BME280;33376;51.306;4.752;2024-01-10T12:01:20;102769.13;;;-0.95;100.00
23321;BME280;33376;51.306;4.752;2024-01-10T12:03:46;102712.69;;;-0.98;100.00
23321;BME280;33376;51.306;4.752;2024-01-10T12:06:13;102780.59;;;-0.87;100.00
23321;BME280;33376;51.306;4.752;2024-01-10T12:08:39;102744.38;;;-0.78;100.00
23321;BME280;33376;51.306;4.752;2024-01-10T12:11:05;102746.03;;;-0.82;100.00
23321;BME280;33376;51.306;4.752;2024-01-10T12:13:30;102722.53;;;-0.85;100.00
23321;BME280;33376;51.306;4.752;2024-01-10T12:15:57;102719.44;;;-0.67;100.00
23321;BME280;33376;51.306;4.752;2024-01-10T12:18:23;102713.38;;;-0.65;100.00
23321;BME280;33376;51.306;4.752;2024-01-10T12:20:48;102698.59;;;-0.67;100.00
23321;BME280;33376;51.306;4.752;2024-01-10T12:23:13;102694.38;;;-0.61;100.00
23321;BME280;33376;51.306;4.752;2024-01-10T12:25:38;102694.50;;;-0.55;100.00
23321;BME280;33376;51.306;4.752;2024-01-10T12:28:04;102661.41;;;-0.59;100.00
23321;BME280;33376;51.306;4.752;2024-01-10T12:30:29;102650.94;;;-0.62;100.00
23321;BME280;33376;51.306;4.752;2024-01-10T12:32:55;102679.00;;;-0.49;100.00
23321;BME280;33376;51.306;4.752;2024-01-10T12:35:21;102671.22;;;-0.46;100.00
23321;BME280;33376;51.306;4.752;2024-01-10T12:37:56;102655.56;;;-0.47;100.00
23321;BME280;33376;51.306;4.752;2024-01-10T12:40:22;102643.66;;;-0.33;100.00
23321;BME280;33376;51.306;4.752;2024-01-10T12:42:47;102657.59;;;-0.33;100.00
23321;BME280;33376;51.306;4.752;2024-01-10T12:45:31;102643.69;;;-0.32;100.00
23321;BME280;33376;51.306;4.752;2024-01-10T12:47:59;102625.41;;;-0.35;100.00
23321;BME280;33376;51.306;4.752;2024-01-10T12:50:24;102621.97;;;-0.34;100.00